createdAt,value
2022-08-17T00:00:52.562Z,20
2022-08-17T00:03:30.380Z,16
2022-08-17T00:06:03.542Z,19
2022-08-17T00:08:36.307Z,20
2022-08-17T00:11:09.220Z,17
2022-08-17T00:13:41.699Z,20
2022-08-17T00:16:14.090Z,18
2022-08-17T00:19:08.815Z,16
2022-08-17T00:22:36.619Z,19
2022-08-17T00:25:07.990Z,19
2022-08-17T00:27:40.154Z,20
2022-08-17T00:30:12.937Z,20
2022-08-17T00:33:17.011Z,20
2022-08-17T00:35:49.599Z,20
2022-08-17T00:38:22.276Z,16
2022-08-17T00:40:59.487Z,20
2022-08-17T00:43:30.864Z,20
2022-08-17T00:46:04.220Z,20
2022-08-17T00:48:37.688Z,20
2022-08-17T00:51:10.323Z,20
2022-08-17T00:53:42.630Z,17
2022-08-17T00:56:15.696Z,18
2022-08-17T00:58:48.312Z,20
2022-08-17T01:01:22.505Z,16
2022-08-17T01:03:59.849Z,17
2022-08-17T01:06:32.042Z,16
2022-08-17T01:09:05.622Z,20
2022-08-17T01:11:38.240Z,16
2022-08-17T01:14:10.955Z,20
2022-08-17T01:16:44.088Z,18
2022-08-17T01:19:16.821Z,19
2022-08-17T01:21:50.003Z,20
2022-08-17T01:24:23.044Z,16
2022-08-17T01:26:58.153Z,20
2022-08-17T01:29:33.050Z,21
2022-08-17T01:32:05.887Z,20
2022-08-17T01:34:44.331Z,20
2022-08-17T01:37:22.909Z,16
2022-08-17T01:39:54.568Z,20
2022-08-17T01:42:27.611Z,20
2022-08-17T01:45:00.616Z,17
2022-08-17T01:47:36.306Z,16
2022-08-17T01:50:08.454Z,16
2022-08-17T01:52:41.419Z,15
2022-08-17T01:55:14.699Z,18
2022-08-17T01:57:47.968Z,16
2022-08-17T02:00:20.870Z,15
2022-08-17T02:02:53.739Z,18
2022-08-17T02:05:26.723Z,16
2022-08-17T02:08:01.136Z,17
2022-08-17T02:10:47.021Z,19
2022-08-17T02:13:18.773Z,20
2022-08-17T02:15:51.383Z,19
2022-08-17T02:18:24.200Z,17
2022-08-17T02:20:56.868Z,19
2022-08-17T02:23:29.736Z,19
2022-08-17T02:26:02.440Z,20
2022-08-17T02:28:35.009Z,17
2022-08-17T02:31:08.378Z,16
2022-08-17T02:33:43.813Z,16
2022-08-17T02:36:35.569Z,16
2022-08-17T02:39:07.997Z,16
2022-08-17T02:41:40.782Z,16
2022-08-17T02:44:40.228Z,14
2022-08-17T02:47:11.203Z,16
2022-08-17T02:49:56.163Z,16
2022-08-17T02:52:44.139Z,18
2022-08-17T02:55:35.857Z,20
2022-08-17T02:58:08.699Z,16
2022-08-17T03:00:42.219Z,16
2022-08-17T03:03:15.092Z,15
2022-08-17T03:05:48.077Z,16
2022-08-17T03:08:20.907Z,13
2022-08-17T03:10:53.440Z,15
2022-08-17T03:13:26.619Z,14
2022-08-17T03:15:59.819Z,16
2022-08-17T03:18:32.404Z,17
2022-08-17T03:21:04.849Z,16
2022-08-17T03:23:38.308Z,17
2022-08-17T03:26:16.288Z,16
2022-08-17T03:28:49.561Z,16
2022-08-17T03:31:22.863Z,16
2022-08-17T03:33:54.444Z,16
2022-08-17T03:36:27.502Z,16
2022-08-17T03:39:00.282Z,15
2022-08-17T03:41:33.374Z,16
2022-08-17T03:44:05.933Z,15
2022-08-17T03:46:39.056Z,20
2022-08-17T03:49:11.987Z,13
2022-08-17T03:51:43.763Z,13
2022-08-17T03:54:16.979Z,13
2022-08-17T03:56:49.899Z,16
2022-08-17T03:59:23.344Z,16
2022-08-17T04:01:59.524Z,12
2022-08-17T04:04:32.560Z,13
2022-08-17T04:07:05.286Z,12
2022-08-17T04:09:38.783Z,19
2022-08-17T04:12:11.408Z,13
2022-08-17T04:14:54.549Z,16
2022-08-17T04:17:25.827Z,15
2022-08-17T04:19:59.225Z,16
2022-08-17T04:22:46.393Z,16
2022-08-17T04:25:27.181Z,16
2022-08-17T04:27:59.836Z,16
2022-08-17T04:30:46.762Z,16
2022-08-17T04:33:19.451Z,17
2022-08-17T04:35:52.458Z,16
2022-08-17T04:38:25.526Z,16
2022-08-17T04:40:58.958Z,16
2022-08-17T04:43:31.594Z,24
2022-08-17T04:46:05.081Z,28
2022-08-17T04:48:38.286Z,20
2022-08-17T04:51:11.420Z,21
2022-08-17T04:53:43.807Z,19
2022-08-17T04:56:19.537Z,16
2022-08-17T04:58:51.769Z,16
2022-08-17T05:01:25.362Z,16
2022-08-17T05:04:35.279Z,16
2022-08-17T05:07:05.862Z,19
2022-08-17T05:09:38.798Z,20
2022-08-17T05:12:11.541Z,16
2022-08-17T05:14:44.495Z,20
2022-08-17T05:17:17.087Z,16
2022-08-17T05:19:52.392Z,16
2022-08-17T05:22:24.937Z,12
2022-08-17T05:24:58.435Z,16
2022-08-17T05:27:36.542Z,20
2022-08-17T05:30:13.193Z,20
2022-08-17T05:32:47.156Z,16
2022-08-17T05:35:20.705Z,16
2022-08-17T05:37:58.217Z,16
2022-08-17T05:40:33.662Z,12
2022-08-17T05:43:05.060Z,16
2022-08-17T05:45:56.503Z,8
2022-08-17T05:48:40.535Z,12
2022-08-17T05:51:12.546Z,12
2022-08-17T05:53:45.821Z,12
2022-08-17T05:56:30.747Z,13
2022-08-17T05:59:03.327Z,9
2022-08-17T06:01:37.580Z,13
2022-08-17T06:04:12.392Z,16
2022-08-17T06:06:45.599Z,8
2022-08-17T06:09:30.249Z,12
2022-08-17T06:12:06.733Z,12
2022-08-17T06:14:51.851Z,12
2022-08-17T06:17:24.793Z,13
2022-08-17T06:19:58.728Z,16
2022-08-17T06:22:31.436Z,13
2022-08-17T06:25:10.919Z,29
2022-08-17T06:27:42.847Z,12
2022-08-17T06:30:15.927Z,12
2022-08-17T06:32:49.618Z,11
2022-08-17T06:35:23.582Z,21
2022-08-17T06:38:05.047Z,20
2022-08-17T06:40:38.455Z,20
2022-08-17T06:43:13.408Z,18
2022-08-17T06:45:47.186Z,32
2022-08-17T06:48:20.789Z,29
2022-08-17T06:50:54.027Z,24
2022-08-17T06:53:26.605Z,12
2022-08-17T06:55:59.253Z,16
2022-08-17T06:58:32.868Z,16
2022-08-17T07:01:06.778Z,16
2022-08-17T07:03:39.980Z,12
2022-08-17T07:06:13.063Z,12
2022-08-17T07:08:46.015Z,16
2022-08-17T07:11:19.354Z,17
2022-08-17T07:13:52.286Z,17
2022-08-17T07:16:25.522Z,16
2022-08-17T07:18:59.453Z,17
2022-08-17T07:21:31.484Z,19
2022-08-17T07:24:04.167Z,16
2022-08-17T07:26:37.346Z,16
2022-08-17T07:29:10.660Z,16
2022-08-17T07:31:43.157Z,18
2022-08-17T07:34:15.867Z,12
2022-08-17T07:36:49.360Z,15
2022-08-17T07:39:20.552Z,16
2022-08-17T07:41:59.782Z,16
2022-08-17T07:44:31.795Z,12
2022-08-17T07:47:06.673Z,20
2022-08-17T07:49:37.930Z,14
2022-08-17T07:52:52.449Z,17
2022-08-17T07:55:24.095Z,12
2022-08-17T07:57:57.138Z,12
2022-08-17T08:00:33.240Z,15
2022-08-17T08:03:06.615Z,16
2022-08-17T08:05:50.993Z,13
2022-08-17T08:08:23.230Z,12
2022-08-17T08:10:56.559Z,12
2022-08-17T08:13:29.653Z,12
2022-08-17T08:16:03.586Z,15
2022-08-17T08:18:57.024Z,12
2022-08-17T08:21:28.612Z,12
2022-08-17T08:24:01.248Z,16
2022-08-17T08:26:34.119Z,16
2022-08-17T08:29:06.916Z,12
2022-08-17T08:31:42.670Z,12
2022-08-17T08:35:03.474Z,16
2022-08-17T08:37:43.055Z,12
2022-08-17T08:40:14.274Z,12
2022-08-17T08:42:47.157Z,16
2022-08-17T08:45:20.182Z,12
2022-08-17T08:47:53.685Z,12
2022-08-17T08:50:38.792Z,9
2022-08-17T08:53:09.921Z,12
2022-08-17T08:55:46.379Z,14
2022-08-17T08:58:42.548Z,16
2022-08-17T09:01:17.577Z,11
2022-08-17T09:03:53.773Z,12
2022-08-17T09:06:40.068Z,10
2022-08-17T09:09:11.592Z,12
2022-08-17T09:12:04.269Z,12
2022-08-17T09:14:47.453Z,10
2022-08-17T09:17:18.776Z,8
2022-08-17T09:19:51.405Z,16
2022-08-17T09:22:24.634Z,9
2022-08-17T09:24:57.537Z,12
2022-08-17T09:27:30.391Z,12
2022-08-17T09:30:03.051Z,8
2022-08-17T09:32:35.826Z,12
2022-08-17T09:35:09.618Z,11
2022-08-17T09:37:41.923Z,8
2022-08-17T09:40:15.103Z,12
2022-08-17T09:42:47.918Z,12
2022-08-17T09:45:20.733Z,12
2022-08-17T09:47:53.894Z,12
2022-08-17T09:51:06.735Z,12
2022-08-17T09:53:37.407Z,8
2022-08-17T09:56:10.234Z,8
2022-08-17T09:58:43.591Z,8
2022-08-17T10:01:16.392Z,12
2022-08-17T10:03:48.997Z,12
2022-08-17T10:06:22.592Z,9
2022-08-17T10:08:54.860Z,9
2022-08-17T10:11:34.016Z,12
2022-08-17T10:14:43.344Z,9
2022-08-17T10:17:26.522Z,8
2022-08-17T10:19:59.240Z,12
2022-08-17T10:22:38.058Z,8
2022-08-17T10:25:24.789Z,8
2022-08-17T10:28:30.483Z,12
2022-08-17T10:31:34.539Z,15
2022-08-17T10:34:06.537Z,10
2022-08-17T10:36:39.243Z,12
2022-08-17T10:39:12.259Z,12
2022-08-17T10:41:45.488Z,8
2022-08-17T10:44:41.604Z,9
2022-08-17T10:47:12.326Z,8
2022-08-17T10:49:45.139Z,8
2022-08-17T10:52:18.041Z,12
2022-08-17T10:54:56.700Z,16
2022-08-17T10:57:30.160Z,12
2022-08-17T11:00:02.869Z,12
2022-08-17T11:02:35.915Z,12
2022-08-17T11:05:08.509Z,8
2022-08-17T11:07:41.267Z,8
2022-08-17T11:10:13.965Z,12
2022-08-17T11:12:46.528Z,8
2022-08-17T11:15:20.599Z,19
2022-08-17T11:17:52.908Z,13
2022-08-17T11:20:25.791Z,12
2022-08-17T11:22:58.354Z,12
2022-08-17T11:25:31.032Z,9
2022-08-17T11:28:03.987Z,8
2022-08-17T11:30:36.901Z,12
2022-08-17T11:33:12.549Z,16
2022-08-17T11:35:44.418Z,8
2022-08-17T11:38:17.190Z,12
2022-08-17T11:40:49.964Z,8
2022-08-17T11:43:25.827Z,12
2022-08-17T11:45:58.672Z,8
2022-08-17T11:48:33.608Z,19
2022-08-17T11:51:07.762Z,12
2022-08-17T11:53:40.356Z,12
2022-08-17T11:56:12.859Z,12
2022-08-17T11:58:45.166Z,11
2022-08-17T12:01:17.669Z,11
2022-08-17T12:03:56.162Z,12
2022-08-17T12:06:33.549Z,18
2022-08-17T12:09:05.357Z,8
2022-08-17T12:12:14.020Z,20
2022-08-17T12:15:11.671Z,8
2022-08-17T12:17:43.261Z,9
2022-08-17T12:20:15.244Z,24
2022-08-17T12:22:47.462Z,8
2022-08-17T12:25:20.316Z,8
2022-08-17T12:28:07.910Z,8
2022-08-17T12:30:41.514Z,8
2022-08-17T12:33:28.829Z,9
2022-08-17T12:36:00.715Z,8
2022-08-17T12:38:34.028Z,10
2022-08-17T12:41:07.950Z,8
2022-08-17T12:43:40.719Z,8
2022-08-17T12:46:15.701Z,8
2022-08-17T12:49:00.222Z,9
2022-08-17T12:51:31.669Z,12
2022-08-17T12:54:04.597Z,8
2022-08-17T12:56:37.746Z,8
2022-08-17T12:59:13.221Z,16
2022-08-17T13:02:03.414Z,8
2022-08-17T13:04:35.739Z,8
2022-08-17T13:07:08.291Z,12
2022-08-17T13:09:41.351Z,11
2022-08-17T13:12:13.633Z,12
2022-08-17T13:14:45.356Z,8
2022-08-17T13:17:17.712Z,14
2022-08-17T13:19:50.093Z,10
2022-08-17T13:22:26.601Z,8
2022-08-17T13:25:00.227Z,12
2022-08-17T13:27:32.105Z,12
2022-08-17T13:30:04.347Z,10
2022-08-17T13:32:36.738Z,11
2022-08-17T13:35:32.937Z,13
2022-08-17T13:38:21.581Z,16
2022-08-17T13:40:54.545Z,17
2022-08-17T13:43:27.243Z,12
2022-08-17T13:46:00.707Z,12
2022-08-17T13:48:33.923Z,8
2022-08-17T13:51:04.938Z,16
2022-08-17T13:53:39.477Z,12
2022-08-17T13:56:39.627Z,22
2022-08-17T13:59:10.677Z,11
2022-08-17T14:01:43.494Z,12
2022-08-17T14:04:27.557Z,12
2022-08-17T14:07:00.436Z,12
2022-08-17T14:09:37.722Z,8
2022-08-17T14:12:08.891Z,16
2022-08-17T14:14:42.332Z,11
2022-08-17T14:17:14.650Z,16
2022-08-17T14:19:47.056Z,16
2022-08-17T14:22:22.542Z,16
2022-08-17T14:24:54.217Z,16
2022-08-17T14:27:27.358Z,12
2022-08-17T14:30:00.713Z,12
2022-08-17T14:32:33.444Z,12
2022-08-17T14:35:06.872Z,16
2022-08-17T14:37:39.754Z,12
2022-08-17T14:40:12.726Z,9
2022-08-17T14:42:46.308Z,16
2022-08-17T14:45:33.541Z,12
2022-08-17T14:48:05.084Z,12
2022-08-17T14:50:38.066Z,15
2022-08-17T14:53:11.522Z,11
2022-08-17T14:55:47.203Z,12
2022-08-17T14:58:20.733Z,12
2022-08-17T15:00:53.990Z,12
2022-08-17T15:03:26.727Z,11
2022-08-17T15:05:59.852Z,12
2022-08-17T15:08:32.436Z,12
2022-08-17T15:11:06.209Z,12
2022-08-17T15:13:53.408Z,12
2022-08-17T15:16:24.598Z,8
2022-08-17T15:18:57.297Z,8
2022-08-17T15:21:30.130Z,9
2022-08-17T15:24:03.087Z,8
2022-08-17T15:26:35.801Z,12
2022-08-17T15:29:08.757Z,12
2022-08-17T15:31:41.793Z,13
2022-08-17T15:34:15.222Z,12
2022-08-17T15:36:49.870Z,9
2022-08-17T15:39:21.707Z,13
2022-08-17T15:41:59.070Z,12
2022-08-17T15:44:35.300Z,13
2022-08-17T15:47:06.741Z,12
2022-08-17T15:49:40.667Z,16
2022-08-17T15:52:13.571Z,12
2022-08-17T15:54:46.866Z,13
2022-08-17T15:57:19.639Z,12
2022-08-17T15:59:58.542Z,10
2022-08-17T16:04:04.885Z,12
2022-08-17T16:07:01.516Z,16
2022-08-17T16:09:34.420Z,12
2022-08-17T16:12:07.134Z,15
2022-08-17T16:14:40.494Z,12
2022-08-17T16:17:40.706Z,12
2022-08-17T16:20:24.110Z,12
2022-08-17T16:22:55.668Z,12
2022-08-17T16:25:54.350Z,12
2022-08-17T16:28:36.669Z,12
2022-08-17T16:31:09.360Z,16
2022-08-17T16:33:41.696Z,12
2022-08-17T16:36:56.616Z,12
2022-08-17T16:39:27.968Z,16
2022-08-17T16:42:01.266Z,16
2022-08-17T16:44:35.854Z,16
2022-08-17T16:47:08.653Z,16
2022-08-17T16:49:41.092Z,19
2022-08-17T16:52:13.758Z,12
2022-08-17T16:55:03.762Z,12
2022-08-17T16:57:50.128Z,15
2022-08-17T17:00:22.120Z,15
2022-08-17T17:02:54.965Z,12
2022-08-17T17:05:27.927Z,16
2022-08-17T17:08:00.588Z,12
2022-08-17T17:10:33.397Z,12
2022-08-17T17:13:12.243Z,12
2022-08-17T17:15:45.359Z,16
2022-08-17T17:18:18.513Z,12
2022-08-17T17:20:51.557Z,15
2022-08-17T17:23:24.231Z,13
2022-08-17T17:25:56.674Z,16
2022-08-17T17:28:29.931Z,16
2022-08-17T17:31:02.579Z,16
2022-08-17T17:33:36.379Z,12
2022-08-17T17:36:08.180Z,16
2022-08-17T17:38:40.884Z,16
2022-08-17T17:41:13.678Z,16
2022-08-17T17:43:47.011Z,17
2022-08-17T17:46:29.201Z,16
2022-08-17T17:49:00.626Z,12
2022-08-17T17:52:15.711Z,16
2022-08-17T17:54:50.396Z,16
2022-08-17T17:57:23.359Z,16
2022-08-17T17:59:55.969Z,16
2022-08-17T18:02:28.533Z,16
2022-08-17T18:05:01.559Z,16
2022-08-17T18:07:34.465Z,20
2022-08-17T18:10:29.935Z,12
2022-08-17T18:13:03.364Z,14
2022-08-17T18:15:36.150Z,13
2022-08-17T18:18:08.743Z,15
2022-08-17T18:20:55.910Z,16
2022-08-17T18:23:28.969Z,15
2022-08-17T18:26:01.720Z,15
2022-08-17T18:28:34.457Z,16
2022-08-17T18:31:07.072Z,16
2022-08-17T18:33:40.552Z,23
2022-08-17T18:36:15.740Z,21
2022-08-17T18:38:49.953Z,27
2022-08-17T18:41:22.867Z,27
2022-08-17T18:43:58.457Z,24
2022-08-17T18:46:30.703Z,20
2022-08-17T18:49:03.219Z,20
2022-08-17T18:51:43.340Z,19
2022-08-17T18:54:14.874Z,20
2022-08-17T18:56:47.798Z,20
2022-08-17T18:59:20.598Z,21
2022-08-17T19:02:00.053Z,28
2022-08-17T19:05:14.888Z,24
2022-08-17T19:07:47.068Z,20
2022-08-17T19:10:22.110Z,16
2022-08-17T19:13:01.099Z,20
2022-08-17T19:16:15.818Z,24
2022-08-17T19:18:47.233Z,28
2022-08-17T19:21:18.172Z,26
2022-08-17T19:23:54.604Z,20
2022-08-17T19:26:56.646Z,24
2022-08-17T19:29:28.180Z,24
2022-08-17T19:32:00.746Z,20
2022-08-17T19:34:34.796Z,21
2022-08-17T19:37:07.167Z,18
2022-08-17T19:39:40.030Z,28
2022-08-17T19:42:12.688Z,29
2022-08-17T19:44:47.050Z,25
2022-08-17T19:47:54.639Z,20
2022-08-17T19:50:34.228Z,22
2022-08-17T19:53:06.926Z,19
2022-08-17T19:55:45.118Z,24
2022-08-17T19:58:23.689Z,16
2022-08-17T20:00:57.734Z,24
2022-08-17T20:03:30.653Z,24
2022-08-17T20:06:14.939Z,28
2022-08-17T20:08:46.062Z,30
2022-08-17T20:11:18.359Z,24
2022-08-17T20:13:51.319Z,28
2022-08-17T20:16:24.280Z,26
2022-08-17T20:18:57.691Z,28
2022-08-17T20:21:37.393Z,23
2022-08-17T20:24:10.569Z,20
2022-08-17T20:26:58.785Z,24
2022-08-17T20:29:40.718Z,26
2022-08-17T20:32:12.204Z,24
2022-08-17T20:34:45.825Z,20
2022-08-17T20:37:18.380Z,24
2022-08-17T20:39:51.567Z,20
2022-08-17T20:42:24.549Z,24
2022-08-17T20:44:57.453Z,25
2022-08-17T20:47:30.149Z,24
2022-08-17T20:50:03.471Z,24
2022-08-17T20:52:36.220Z,24
2022-08-17T20:55:09.382Z,26
2022-08-17T20:57:42.047Z,20
2022-08-17T21:00:15.312Z,21
2022-08-17T21:02:48.109Z,22
2022-08-17T21:05:21.418Z,29
2022-08-17T21:08:02.373Z,24
2022-08-17T21:10:40.007Z,24
2022-08-17T21:13:13.165Z,26
2022-08-17T21:15:48.051Z,27
2022-08-17T21:18:23.933Z,24
2022-08-17T21:20:57.859Z,24
2022-08-17T21:23:31.377Z,24
2022-08-17T21:26:03.569Z,28
2022-08-17T21:29:01.648Z,24
2022-08-17T21:32:12.917Z,29
2022-08-17T21:34:55.677Z,20
2022-08-17T21:37:28.451Z,25
2022-08-17T21:40:01.408Z,25
2022-08-17T21:42:34.842Z,24
2022-08-17T21:45:05.880Z,24
2022-08-17T21:47:38.412Z,28
2022-08-17T21:50:11.592Z,28
2022-08-17T21:52:45.421Z,24
2022-08-17T21:55:21.116Z,21
2022-08-17T21:58:15.715Z,27
2022-08-17T22:00:47.860Z,20
2022-08-17T22:03:21.171Z,27
2022-08-17T22:05:53.647Z,21
2022-08-17T22:08:28.296Z,20
2022-08-17T22:11:02.229Z,23
2022-08-17T22:13:35.334Z,29
2022-08-17T22:16:28.270Z,32
2022-08-17T22:19:00.868Z,25
2022-08-17T22:21:35.011Z,28
2022-08-17T22:24:08.013Z,32
2022-08-17T22:26:40.899Z,24
2022-08-17T22:29:13.050Z,31
2022-08-17T22:31:46.816Z,16
2022-08-17T22:34:19.133Z,20
2022-08-17T22:36:53.501Z,24
2022-08-17T22:39:26.455Z,25
2022-08-17T22:41:59.204Z,24
2022-08-17T22:44:32.769Z,20
2022-08-17T22:47:06.177Z,18
2022-08-17T22:49:54.633Z,16
2022-08-17T22:52:32.969Z,15
2022-08-17T22:55:10.006Z,16
2022-08-17T22:57:42.185Z,17
2022-08-17T23:00:15.135Z,20
2022-08-17T23:02:56.004Z,16
2022-08-17T23:05:28.102Z,16
2022-08-17T23:08:01.392Z,16
2022-08-17T23:10:34.075Z,16
2022-08-17T23:13:06.693Z,16
2022-08-17T23:15:39.866Z,16
2022-08-17T23:18:12.214Z,17
2022-08-17T23:20:44.280Z,16
2022-08-17T23:23:24.034Z,17
2022-08-17T23:25:56.045Z,13
2022-08-17T23:28:28.864Z,16
2022-08-17T23:31:03.551Z,16
2022-08-17T23:33:35.476Z,20
2022-08-17T23:36:08.032Z,16
2022-08-17T23:38:40.485Z,20
2022-08-17T23:41:13.494Z,19
2022-08-17T23:43:46.541Z,16
2022-08-17T23:46:19.768Z,18
2022-08-17T23:48:52.693Z,16
2022-08-17T23:51:28.036Z,13
2022-08-17T23:54:08.276Z,20
2022-08-17T23:56:40.214Z,19
2022-08-17T23:59:13.639Z,16
